sensor_id;sensor_type;location;lat;lon;timestamp;temperature;humidity
2995;DHT22;35277;49.890;8.222;2023-04-23T00:01:50;22.50;68.90
2995;DHT22;35277;49.890;8.222;2023-04-23T00:04:20;22.50;68.90
2995;DHT22;35277;49.890;8.222;2023-04-23T00:06:49;22.50;68.90
2995;DHT22;35277;49.890;8.222;2023-04-23T00:09:17;22.50;68.90
2995;DHT22;35277;49.890;8.222;2023-04-23T00:11:46;22.50;68.90
2995;DHT22;35277;49.890;8.222;2023-04-23T00:14:15;22.50;68.90
2995;DHT22;35277;49.890;8.222;2023-04-23T00:16:43;22.50;68.90
2995;DHT22;35277;49.890;8.222;2023-04-23T00:19:11;22.50;68.90
2995;DHT22;35277;49.890;8.222;2023-04-23T00:21:39;22.50;68.90
2995;DHT22;35277;49.890;8.222;2023-04-23T00:24:07;22.50;68.90
2995;DHT22;35277;49.890;8.222;2023-04-23T00:26:34;22.50;68.90
2995;DHT22;35277;49.890;8.222;2023-04-23T00:29:02;22.50;68.90
2995;DHT22;35277;49.890;8.222;2023-04-23T00:31:31;22.50;68.90
2995;DHT22;35277;49.890;8.222;2023-04-23T00:33:59;22.50;68.80
2995;DHT22;35277;49.890;8.222;2023-04-23T00:36:27;22.50;68.80
2995;DHT22;35277;49.890;8.222;2023-04-23T00:38:54;22.50;68.90
2995;DHT22;35277;49.890;8.222;2023-04-23T00:41:22;22.50;68.80
2995;DHT22;35277;49.890;8.222;2023-04-23T00:43:50;22.50;68.90
2995;DHT22;35277;49.890;8.222;2023-04-23T00:46:19;22.50;68.90
2995;DHT22;35277;49.890;8.222;2023-04-23T00:48:49;22.50;68.80
2995;DHT22;35277;49.890;8.222;2023-04-23T00:51:20;22.50;68.80
2995;DHT22;35277;49.890;8.222;2023-04-23T00:53:49;22.50;68.90
2995;DHT22;35277;49.890;8.222;2023-04-23T00:56:17;22.50;68.80
2995;DHT22;35277;49.890;8.222;2023-04-23T00:58:45;22.50;68.80
2995;DHT22;35277;49.890;8.222;2023-04-23T01:01:13;22.50;68.90
2995;DHT22;35277;49.890;8.222;2023-04-23T01:03:41;22.50;69.70
2995;DHT22;35277;49.890;8.222;2023-04-23T01:06:11;22.50;68.80
2995;DHT22;35277;49.890;8.222;2023-04-23T01:08:39;22.50;68.90
2995;DHT22;35277;49.890;8.222;2023-04-23T01:11:10;22.50;68.80
2995;DHT22;35277;49.890;8.222;2023-04-23T01:13:38;22.40;68.70
2995;DHT22;35277;49.890;8.222;2023-04-23T01:16:06;22.50;68.90
2995;DHT22;35277;49.890;8.222;2023-04-23T01:18:36;22.40;68.70
2995;DHT22;35277;49.890;8.222;2023-04-23T01:21:06;22.40;68.70
2995;DHT22;35277;49.890;8.222;2023-04-23T01:23:36;22.50;68.90
2995;DHT22;35277;49.890;8.222;2023-04-23T01:26:04;22.40;69.60
2995;DHT22;35277;49.890;8.222;2023-04-23T01:28:32;22.50;68.90
2995;DHT22;35277;49.890;8.222;2023-04-23T01:31:01;22.50;68.80
2995;DHT22;35277;49.890;8.222;2023-04-23T01:33:30;22.40;68.70
2995;DHT22;35277;49.890;8.222;2023-04-23T01:35:59;22.40;68.70
2995;DHT22;35277;49.890;8.222;2023-04-23T01:38:27;22.50;68.90
2995;DHT22;35277;49.890;8.222;2023-04-23T01:40:58;22.40;68.80
2995;DHT22;35277;49.890;8.222;2023-04-23T01:43:27;22.50;68.80
2995;DHT22;35277;49.890;8.222;2023-04-23T01:45:54;22.40;68.70
2995;DHT22;35277;49.890;8.222;2023-04-23T01:48:22;22.40;68.70
2995;DHT22;35277;49.890;8.222;2023-04-23T01:50:50;22.40;68.70
2995;DHT22;35277;49.890;8.222;2023-04-23T01:53:19;22.40;68.70
2995;DHT22;35277;49.890;8.222;2023-04-23T01:55:47;22.40;68.80
2995;DHT22;35277;49.890;8.222;2023-04-23T01:58:16;22.40;68.70
2995;DHT22;35277;49.890;8.222;2023-04-23T02:00:44;22.40;68.70
2995;DHT22;35277;49.890;8.222;2023-04-23T02:03:13;22.40;68.70
2995;DHT22;35277;49.890;8.222;2023-04-23T02:05:42;22.40;68.70
2995;DHT22;35277;49.890;8.222;2023-04-23T02:08:11;22.40;68.70
2995;DHT22;35277;49.890;8.222;2023-04-23T02:10:39;22.40;68.70
2995;DHT22;35277;49.890;8.222;2023-04-23T02:13:07;22.40;68.70
2995;DHT22;35277;49.890;8.222;2023-04-23T02:15:36;22.40;68.70
2995;DHT22;35277;49.890;8.222;2023-04-23T02:18:04;22.40;68.70
2995;DHT22;35277;49.890;8.222;2023-04-23T02:20:32;22.40;68.70
2995;DHT22;35277;49.890;8.222;2023-04-23T02:23:01;22.40;68.70
2995;DHT22;35277;49.890;8.222;2023-04-23T02:25:30;22.40;68.70
2995;DHT22;35277;49.890;8.222;2023-04-23T02:27:59;22.40;68.70
2995;DHT22;35277;49.890;8.222;2023-04-23T02:30:30;22.40;68.70
2995;DHT22;35277;49.890;8.222;2023-04-23T02:33:00;22.40;68.70
2995;DHT22;35277;49.890;8.222;2023-04-23T02:35:28;22.40;68.70
2995;DHT22;35277;49.890;8.222;2023-04-23T02:37:56;22.40;68.70
2995;DHT22;35277;49.890;8.222;2023-04-23T02:40:23;22.40;68.70
2995;DHT22;35277;49.890;8.222;2023-04-23T02:42:51;22.40;68.70
2995;DHT22;35277;49.890;8.222;2023-04-23T02:45:19;22.40;68.70
2995;DHT22;35277;49.890;8.222;2023-04-23T02:47:49;22.40;68.70
2995;DHT22;35277;49.890;8.222;2023-04-23T02:50:20;22.40;68.70
2995;DHT22;35277;49.890;8.222;2023-04-23T02:52:48;22.40;68.70
2995;DHT22;35277;49.890;8.222;2023-04-23T02:55:16;22.40;68.70
2995;DHT22;35277;49.890;8.222;2023-04-23T02:57:44;22.40;68.80
2995;DHT22;35277;49.890;8.222;2023-04-23T03:00:12;22.40;68.70
2995;DHT22;35277;49.890;8.222;2023-04-23T03:02:42;22.40;68.70
2995;DHT22;35277;49.890;8.222;2023-04-23T03:05:10;22.40;68.70
2995;DHT22;35277;49.890;8.222;2023-04-23T03:07:41;22.40;68.70
2995;DHT22;35277;49.890;8.222;2023-04-23T03:10:09;22.40;68.70
2995;DHT22;35277;49.890;8.222;2023-04-23T03:12:36;22.40;68.70
2995;DHT22;35277;49.890;8.222;2023-04-23T03:15:06;22.40;68.70
2995;DHT22;35277;49.890;8.222;2023-04-23T03:17:35;22.40;68.70
2995;DHT22;35277;49.890;8.222;2023-04-23T03:20:06;22.40;68.80
2995;DHT22;35277;49.890;8.222;2023-04-23T03:22:37;22.40;68.70
2995;DHT22;35277;49.890;8.222;2023-04-23T03:25:07;22.40;68.70
2995;DHT22;35277;49.890;8.222;2023-04-23T03:27:35;22.40;68.70
2995;DHT22;35277;49.890;8.222;2023-04-23T03:30:07;22.40;68.70
2995;DHT22;35277;49.890;8.222;2023-04-23T03:32:35;22.40;68.70
2995;DHT22;35277;49.890;8.222;2023-04-23T03:35:04;22.40;68.70
2995;DHT22;35277;49.890;8.222;2023-04-23T03:37:32;22.40;68.70
2995;DHT22;35277;49.890;8.222;2023-04-23T03:40:00;22.40;68.70
2995;DHT22;35277;49.890;8.222;2023-04-23T03:42:33;22.40;68.70
2995;DHT22;35277;49.890;8.222;2023-04-23T03:45:01;22.40;68.70
2995;DHT22;35277;49.890;8.222;2023-04-23T03:47:29;22.40;68.70
2995;DHT22;35277;49.890;8.222;2023-04-23T03:49:57;22.40;68.70
2995;DHT22;35277;49.890;8.222;2023-04-23T03:52:25;22.40;68.70
2995;DHT22;35277;49.890;8.222;2023-04-23T03:54:54;22.40;68.70
2995;DHT22;35277;49.890;8.222;2023-04-23T03:57:27;22.40;68.70
2995;DHT22;35277;49.890;8.222;2023-04-23T04:00:12;22.40;68.70
2995;DHT22;35277;49.890;8.222;2023-04-23T04:02:41;22.40;68.70
2995;DHT22;35277;49.890;8.222;2023-04-23T04:05:09;22.40;68.70
2995;DHT22;35277;49.890;8.222;2023-04-23T04:07:37;22.40;68.70
2995;DHT22;35277;49.890;8.222;2023-04-23T04:10:06;22.40;68.70
2995;DHT22;35277;49.890;8.222;2023-04-23T04:12:34;22.40;68.70
2995;DHT22;35277;49.890;8.222;2023-04-23T04:15:02;22.40;68.70
2995;DHT22;35277;49.890;8.222;2023-04-23T04:17:31;22.40;68.70
2995;DHT22;35277;49.890;8.222;2023-04-23T04:19:59;22.40;68.70
2995;DHT22;35277;49.890;8.222;2023-04-23T04:22:28;22.40;68.70
2995;DHT22;35277;49.890;8.222;2023-04-23T04:24:56;22.40;68.70
2995;DHT22;35277;49.890;8.222;2023-04-23T04:27:23;22.40;68.70
2995;DHT22;35277;49.890;8.222;2023-04-23T04:29:51;22.40;68.70
2995;DHT22;35277;49.890;8.222;2023-04-23T04:32:19;22.40;68.70
2995;DHT22;35277;49.890;8.222;2023-04-23T04:34:50;22.40;68.70
2995;DHT22;35277;49.890;8.222;2023-04-23T04:37:18;22.40;68.60
2995;DHT22;35277;49.890;8.222;2023-04-23T04:39:46;22.40;68.60
2995;DHT22;35277;49.890;8.222;2023-04-23T04:42:14;22.40;68.60
2995;DHT22;35277;49.890;8.222;2023-04-23T04:44:42;22.40;68.60
2995;DHT22;35277;49.890;8.222;2023-04-23T04:47:10;22.40;68.60
2995;DHT22;35277;49.890;8.222;2023-04-23T04:49:38;22.30;68.50
2995;DHT22;35277;49.890;8.222;2023-04-23T04:52:08;22.40;68.60
2995;DHT22;35277;49.890;8.222;2023-04-23T04:54:35;22.40;68.60
2995;DHT22;35277;49.890;8.222;2023-04-23T04:57:03;22.40;68.60
2995;DHT22;35277;49.890;8.222;2023-04-23T04:59:31;22.40;68.60
2995;DHT22;35277;49.890;8.222;2023-04-23T05:01:59;22.40;68.60
2995;DHT22;35277;49.890;8.222;2023-04-23T05:04:27;22.40;68.60
2995;DHT22;35277;49.890;8.222;2023-04-23T05:06:55;22.40;68.60
2995;DHT22;35277;49.890;8.222;2023-04-23T05:09:24;22.40;68.60
2995;DHT22;35277;49.890;8.222;2023-04-23T05:11:52;22.40;69.30
2995;DHT22;35277;49.890;8.222;2023-04-23T05:14:20;22.40;68.50
2995;DHT22;35277;49.890;8.222;2023-04-23T05:16:47;22.40;69.30
2995;DHT22;35277;49.890;8.222;2023-04-23T05:19:15;22.40;68.60
2995;DHT22;35277;49.890;8.222;2023-04-23T05:21:43;22.40;68.50
2995;DHT22;35277;49.890;8.222;2023-04-23T05:24:11;22.40;68.50
2995;DHT22;35277;49.890;8.222;2023-04-23T05:26:40;22.40;68.50
2995;DHT22;35277;49.890;8.222;2023-04-23T05:29:08;22.40;68.50
2995;DHT22;35277;49.890;8.222;2023-04-23T05:31:35;22.40;68.50
2995;DHT22;35277;49.890;8.222;2023-04-23T05:34:03;22.40;68.40
2995;DHT22;35277;49.890;8.222;2023-04-23T05:36:31;22.40;68.40
2995;DHT22;35277;49.890;8.222;2023-04-23T05:38:59;22.40;68.40
2995;DHT22;35277;49.890;8.222;2023-04-23T05:41:27;22.40;68.40
2995;DHT22;35277;49.890;8.222;2023-04-23T05:43:56;22.40;68.40
2995;DHT22;35277;49.890;8.222;2023-04-23T05:46:24;22.40;68.40
2995;DHT22;35277;49.890;8.222;2023-04-23T05:48:52;22.40;68.40
2995;DHT22;35277;49.890;8.222;2023-04-23T05:51:19;22.40;68.30
2995;DHT22;35277;49.890;8.222;2023-04-23T05:53:47;22.40;68.40
2995;DHT22;35277;49.890;8.222;2023-04-23T05:56:15;22.40;68.30
2995;DHT22;35277;49.890;8.222;2023-04-23T05:58:43;22.40;68.60
2995;DHT22;35277;49.890;8.222;2023-04-23T06:01:12;22.40;68.40
2995;DHT22;35277;49.890;8.222;2023-04-23T06:03:40;22.40;68.40
2995;DHT22;35277;49.890;8.222;2023-04-23T06:06:11;22.40;68.50
2995;DHT22;35277;49.890;8.222;2023-04-23T06:08:38;22.40;68.60
2995;DHT22;35277;49.890;8.222;2023-04-23T06:11:07;22.40;68.60
2995;DHT22;35277;49.890;8.222;2023-04-23T06:13:35;22.40;68.60
2995;DHT22;35277;49.890;8.222;2023-04-23T06:16:09;22.40;68.60
2995;DHT22;35277;49.890;8.222;2023-04-23T06:18:38;22.40;68.70
2995;DHT22;35277;49.890;8.222;2023-04-23T06:21:06;22.40;68.80
2995;DHT22;35277;49.890;8.222;2023-04-23T06:23:34;22.40;68.80
2995;DHT22;35277;49.890;8.222;2023-04-23T06:26:02;22.40;68.80
2995;DHT22;35277;49.890;8.222;2023-04-23T06:28:31;22.40;69.00
2995;DHT22;35277;49.890;8.222;2023-04-23T06:31:19;22.40;69.20
2995;DHT22;35277;49.890;8.222;2023-04-23T06:33:48;22.40;69.30
2995;DHT22;35277;49.890;8.222;2023-04-23T06:36:16;22.40;69.50
2995;DHT22;35277;49.890;8.222;2023-04-23T06:38:44;22.40;69.60
2995;DHT22;35277;49.890;8.222;2023-04-23T06:41:11;22.40;69.70
2995;DHT22;35277;49.890;8.222;2023-04-23T06:43:39;22.40;69.80
2995;DHT22;35277;49.890;8.222;2023-04-23T06:46:19;22.40;70.20
2995;DHT22;35277;49.890;8.222;2023-04-23T06:48:48;22.50;70.80
2995;DHT22;35277;49.890;8.222;2023-04-23T06:51:16;22.50;71.10
2995;DHT22;35277;49.890;8.222;2023-04-23T06:53:44;22.50;71.40
2995;DHT22;35277;49.890;8.222;2023-04-23T06:56:11;22.60;71.70
2995;DHT22;35277;49.890;8.222;2023-04-23T06:58:39;22.60;71.80
2995;DHT22;35277;49.890;8.222;2023-04-23T07:01:15;22.60;71.90
2995;DHT22;35277;49.890;8.222;2023-04-23T07:03:43;22.70;72.00
2995;DHT22;35277;49.890;8.222;2023-04-23T07:06:15;22.70;72.10
2995;DHT22;35277;49.890;8.222;2023-04-23T07:08:43;22.70;72.20
2995;DHT22;35277;49.890;8.222;2023-04-23T07:11:11;22.70;73.00
2995;DHT22;35277;49.890;8.222;2023-04-23T07:13:39;22.70;72.30
2995;DHT22;35277;49.890;8.222;2023-04-23T07:16:07;22.80;72.40
2995;DHT22;35277;49.890;8.222;2023-04-23T07:18:35;22.80;72.40
2995;DHT22;35277;49.890;8.222;2023-04-23T07:21:02;22.70;72.40
2995;DHT22;35277;49.890;8.222;2023-04-23T07:23:31;22.70;72.40
2995;DHT22;35277;49.890;8.222;2023-04-23T07:25:59;22.70;72.40
2995;DHT22;35277;49.890;8.222;2023-04-23T07:28:27;22.80;72.60
2995;DHT22;35277;49.890;8.222;2023-04-23T07:30:55;22.70;72.40
2995;DHT22;35277;49.890;8.222;2023-04-23T07:33:23;22.70;72.40
2995;DHT22;35277;49.890;8.222;2023-04-23T07:35:51;22.70;72.40
2995;DHT22;35277;49.890;8.222;2023-04-23T07:38:19;22.70;72.40
2995;DHT22;35277;49.890;8.222;2023-04-23T07:40:48;22.70;72.50
2995;DHT22;35277;49.890;8.222;2023-04-23T07:43:16;22.70;72.50
2995;DHT22;35277;49.890;8.222;2023-04-23T07:45:44;22.70;72.50
2995;DHT22;35277;49.890;8.222;2023-04-23T07:48:12;22.70;72.50
2995;DHT22;35277;49.890;8.222;2023-04-23T07:50:39;22.70;72.50
2995;DHT22;35277;49.890;8.222;2023-04-23T07:53:07;22.80;72.70
2995;DHT22;35277;49.890;8.222;2023-04-23T07:55:35;22.70;72.50
2995;DHT22;35277;49.890;8.222;2023-04-23T07:58:04;22.70;72.40
2995;DHT22;35277;49.890;8.222;2023-04-23T08:00:32;22.70;72.40
2995;DHT22;35277;49.890;8.222;2023-04-23T08:02:59;22.70;72.10
2995;DHT22;35277;49.890;8.222;2023-04-23T08:05:27;22.70;71.90
2995;DHT22;35277;49.890;8.222;2023-04-23T08:07:55;22.70;71.80
2995;DHT22;35277;49.890;8.222;2023-04-23T08:10:23;22.70;71.70
2995;DHT22;35277;49.890;8.222;2023-04-23T08:12:51;22.70;71.70
2995;DHT22;35277;49.890;8.222;2023-04-23T08:15:20;22.70;71.60
2995;DHT22;35277;49.890;8.222;2023-04-23T08:17:47;22.70;71.50
2995;DHT22;35277;49.890;8.222;2023-04-23T08:20:15;22.70;71.50
2995;DHT22;35277;49.890;8.222;2023-04-23T08:22:43;22.70;71.40
2995;DHT22;35277;49.890;8.222;2023-04-23T08:25:11;22.70;71.50
2995;DHT22;35277;49.890;8.222;2023-04-23T08:27:39;22.70;71.50
2995;DHT22;35277;49.890;8.222;2023-04-23T08:30:07;22.80;71.60
2995;DHT22;35277;49.890;8.222;2023-04-23T08:32:37;22.70;71.50
2995;DHT22;35277;49.890;8.222;2023-04-23T08:35:06;22.80;71.60
2995;DHT22;35277;49.890;8.222;2023-04-23T08:37:34;22.70;71.40
2995;DHT22;35277;49.890;8.222;2023-04-23T08:40:02;22.80;71.60
2995;DHT22;35277;49.890;8.222;2023-04-23T08:42:36;22.80;71.60
2995;DHT22;35277;49.890;8.222;2023-04-23T08:45:06;22.80;71.60
2995;DHT22;35277;49.890;8.222;2023-04-23T08:47:34;22.80;71.60
2995;DHT22;35277;49.890;8.222;2023-04-23T08:50:04;22.80;71.50
2995;DHT22;35277;49.890;8.222;2023-04-23T08:52:39;22.80;71.50
2995;DHT22;35277;49.890;8.222;2023-04-23T08:55:08;22.80;71.50
2995;DHT22;35277;49.890;8.222;2023-04-23T08:57:38;22.80;71.50
2995;DHT22;35277;49.890;8.222;2023-04-23T09:00:08;22.90;71.60
2995;DHT22;35277;49.890;8.222;2023-04-23T09:02:39;22.80;71.50
2995;DHT22;35277;49.890;8.222;2023-04-23T09:05:09;22.80;71.40
2995;DHT22;35277;49.890;8.222;2023-04-23T09:07:37;22.80;71.40
2995;DHT22;35277;49.890;8.222;2023-04-23T09:10:07;22.80;71.50
2995;DHT22;35277;49.890;8.222;2023-04-23T09:12:37;22.80;71.60
2995;DHT22;35277;49.890;8.222;2023-04-23T09:15:06;22.90;71.80
2995;DHT22;35277;49.890;8.222;2023-04-23T09:17:38;22.90;71.80
2995;DHT22;35277;49.890;8.222;2023-04-23T09:20:08;22.90;71.80
2995;DHT22;35277;49.890;8.222;2023-04-23T09:22:38;22.90;71.80
2995;DHT22;35277;49.890;8.222;2023-04-23T09:25:07;22.90;71.80
2995;DHT22;35277;49.890;8.222;2023-04-23T09:27:35;22.90;71.80
2995;DHT22;35277;49.890;8.222;2023-04-23T09:30:04;22.90;71.80
2995;DHT22;35277;49.890;8.222;2023-04-23T09:32:33;22.90;71.80
2995;DHT22;35277;49.890;8.222;2023-04-23T09:35:02;22.90;71.70
2995;DHT22;35277;49.890;8.222;2023-04-23T09:37:32;22.90;71.60
2995;DHT22;35277;49.890;8.222;2023-04-23T09:40:01;22.90;71.60
2995;DHT22;35277;49.890;8.222;2023-04-23T09:42:32;22.90;71.60
2995;DHT22;35277;49.890;8.222;2023-04-23T09:45:01;22.90;71.60
2995;DHT22;35277;49.890;8.222;2023-04-23T09:47:31;22.90;71.50
2995;DHT22;35277;49.890;8.222;2023-04-23T09:50:00;22.90;71.60
2995;DHT22;35277;49.890;8.222;2023-04-23T09:52:32;22.90;71.60
2995;DHT22;35277;49.890;8.222;2023-04-23T09:55:01;22.80;71.50
2995;DHT22;35277;49.890;8.222;2023-04-23T09:57:34;22.80;71.50
2995;DHT22;35277;49.890;8.222;2023-04-23T10:00:13;22.90;71.60
2995;DHT22;35277;49.890;8.222;2023-04-23T10:02:45;22.80;71.50
2995;DHT22;35277;49.890;8.222;2023-04-23T10:05:14;22.80;71.50
2995;DHT22;35277;49.890;8.222;2023-04-23T10:07:55;22.80;71.50
2995;DHT22;35277;49.890;8.222;2023-04-23T10:10:24;22.80;71.40
2995;DHT22;35277;49.890;8.222;2023-04-23T10:12:52;22.80;71.40
2995;DHT22;35277;49.890;8.222;2023-04-23T10:15:22;22.80;71.30
2995;DHT22;35277;49.890;8.222;2023-04-23T10:17:52;22.80;71.40
2995;DHT22;35277;49.890;8.222;2023-04-23T10:20:22;22.80;71.30
2995;DHT22;35277;49.890;8.222;2023-04-23T10:22:52;22.80;71.30
2995;DHT22;35277;49.890;8.222;2023-04-23T10:25:22;22.80;71.30
2995;DHT22;35277;49.890;8.222;2023-04-23T10:27:51;22.80;71.20
2995;DHT22;35277;49.890;8.222;2023-04-23T10:30:21;22.80;71.20
2995;DHT22;35277;49.890;8.222;2023-04-23T10:32:49;22.80;71.20
2995;DHT22;35277;49.890;8.222;2023-04-23T10:35:17;22.80;71.20
2995;DHT22;35277;49.890;8.222;2023-04-23T10:37:46;22.90;71.30
2995;DHT22;35277;49.890;8.222;2023-04-23T10:40:18;22.80;71.20
2995;DHT22;35277;49.890;8.222;2023-04-23T10:42:49;22.80;71.20
2995;DHT22;35277;49.890;8.222;2023-04-23T10:45:18;22.80;71.20
2995;DHT22;35277;49.890;8.222;2023-04-23T10:47:52;22.90;71.30
2995;DHT22;35277;49.890;8.222;2023-04-23T10:50:22;22.80;71.20
2995;DHT22;35277;49.890;8.222;2023-04-23T10:52:51;22.80;71.20
2995;DHT22;35277;49.890;8.222;2023-04-23T10:55:22;22.90;71.30
2995;DHT22;35277;49.890;8.222;2023-04-23T10:58:01;22.80;71.30
2995;DHT22;35277;49.890;8.222;2023-04-23T11:00:42;22.80;71.50
2995;DHT22;35277;49.890;8.222;2023-04-23T11:03:29;22.80;71.60
2995;DHT22;35277;49.890;8.222;2023-04-23T11:06:00;22.80;71.80
2995;DHT22;35277;49.890;8.222;2023-04-23T11:08:29;22.80;71.90
2995;DHT22;35277;49.890;8.222;2023-04-23T11:10:59;22.90;71.90
2995;DHT22;35277;49.890;8.222;2023-04-23T11:13:29;22.80;71.70
2995;DHT22;35277;49.890;8.222;2023-04-23T11:16:16;22.80;71.70
2995;DHT22;35277;49.890;8.222;2023-04-23T11:18:58;22.80;71.80
2995;DHT22;35277;49.890;8.222;2023-04-23T11:21:57;22.80;71.80
2995;DHT22;35277;49.890;8.222;2023-04-23T11:24:26;22.80;71.80
2995;DHT22;35277;49.890;8.222;2023-04-23T11:26:54;22.80;72.60
2995;DHT22;35277;49.890;8.222;2023-04-23T11:29:25;22.90;71.80
2995;DHT22;35277;49.890;8.222;2023-04-23T11:31:53;22.90;71.80
2995;DHT22;35277;49.890;8.222;2023-04-23T11:34:24;22.90;71.60
2995;DHT22;35277;49.890;8.222;2023-04-23T11:36:53;22.80;71.40
2995;DHT22;35277;49.890;8.222;2023-04-23T11:39:21;22.80;71.20
2995;DHT22;35277;49.890;8.222;2023-04-23T11:41:51;22.80;71.00
2995;DHT22;35277;49.890;8.222;2023-04-23T11:44:20;22.80;70.90
2995;DHT22;35277;49.890;8.222;2023-04-23T11:46:49;22.80;70.80
2995;DHT22;35277;49.890;8.222;2023-04-23T11:49:19;22.80;70.60
2995;DHT22;35277;49.890;8.222;2023-04-23T11:51:47;22.80;70.50
2995;DHT22;35277;49.890;8.222;2023-04-23T11:54:15;22.70;70.30
2995;DHT22;35277;49.890;8.222;2023-04-23T11:56:43;22.80;70.50
2995;DHT22;35277;49.890;8.222;2023-04-23T11:59:11;22.70;70.30
2995;DHT22;35277;49.890;8.222;2023-04-23T12:01:44;22.70;70.50
2995;DHT22;35277;49.890;8.222;2023-04-23T12:04:15;22.80;70.70
2995;DHT22;35277;49.890;8.222;2023-04-23T12:06:44;22.80;70.80
2995;DHT22;35277;49.890;8.222;2023-04-23T12:09:13;22.80;71.00
2995;DHT22;35277;49.890;8.222;2023-04-23T12:11:43;22.80;71.00
2995;DHT22;35277;49.890;8.222;2023-04-23T12:14:13;22.80;71.10
2995;DHT22;35277;49.890;8.222;2023-04-23T12:16:42;22.80;71.00
2995;DHT22;35277;49.890;8.222;2023-04-23T12:19:14;22.80;71.00
2995;DHT22;35277;49.890;8.222;2023-04-23T12:21:49;22.80;71.00
2995;DHT22;35277;49.890;8.222;2023-04-23T12:24:21;22.80;71.00
2995;DHT22;35277;49.890;8.222;2023-04-23T12:26:51;22.90;71.00
2995;DHT22;35277;49.890;8.222;2023-04-23T12:29:20;22.80;70.80
2995;DHT22;35277;49.890;8.222;2023-04-23T12:31:49;22.90;70.80
2995;DHT22;35277;49.890;8.222;2023-04-23T12:34:20;22.90;70.70
2995;DHT22;35277;49.890;8.222;2023-04-23T12:36:49;22.90;70.50
2995;DHT22;35277;49.890;8.222;2023-04-23T12:39:23;22.90;70.40
2995;DHT22;35277;49.890;8.222;2023-04-23T12:41:53;22.90;70.20
2995;DHT22;35277;49.890;8.222;2023-04-23T12:44:21;22.80;69.90
2995;DHT22;35277;49.890;8.222;2023-04-23T12:46:53;22.80;69.80
2995;DHT22;35277;49.890;8.222;2023-04-23T12:49:25;22.90;69.90
2995;DHT22;35277;49.890;8.222;2023-04-23T12:51:54;22.80;69.80
2995;DHT22;35277;49.890;8.222;2023-04-23T12:54:27;22.90;69.90
2995;DHT22;35277;49.890;8.222;2023-04-23T12:56:57;22.90;69.90
2995;DHT22;35277;49.890;8.222;2023-04-23T12:59:25;22.90;69.90
2995;DHT22;35277;49.890;8.222;2023-04-23T13:01:53;22.90;69.90
2995;DHT22;35277;49.890;8.222;2023-04-23T13:04:21;23.00;69.90
2995;DHT22;35277;49.890;8.222;2023-04-23T13:06:50;23.00;69.80
2995;DHT22;35277;49.890;8.222;2023-04-23T13:09:18;23.00;69.60
2995;DHT22;35277;49.890;8.222;2023-04-23T13:11:47;23.00;69.30
2995;DHT22;35277;49.890;8.222;2023-04-23T13:14:15;23.10;69.20
2995;DHT22;35277;49.890;8.222;2023-04-23T13:16:43;23.10;69.00
2995;DHT22;35277;49.890;8.222;2023-04-23T13:19:11;23.10;68.80
2995;DHT22;35277;49.890;8.222;2023-04-23T13:21:39;23.10;68.60
2995;DHT22;35277;49.890;8.222;2023-04-23T13:24:08;23.10;68.40
2995;DHT22;35277;49.890;8.222;2023-04-23T13:26:36;23.10;68.30
2995;DHT22;35277;49.890;8.222;2023-04-23T13:29:04;23.10;68.10
2995;DHT22;35277;49.890;8.222;2023-04-23T13:31:32;23.10;68.00
2995;DHT22;35277;49.890;8.222;2023-04-23T13:34:00;23.10;67.90
2995;DHT22;35277;49.890;8.222;2023-04-23T13:36:28;23.10;67.80
2995;DHT22;35277;49.890;8.222;2023-04-23T13:38:56;23.10;67.70
2995;DHT22;35277;49.890;8.222;2023-04-23T13:41:25;23.10;67.70
2995;DHT22;35277;49.890;8.222;2023-04-23T13:43:53;23.10;67.50
2995;DHT22;35277;49.890;8.222;2023-04-23T13:46:20;23.10;67.50
2995;DHT22;35277;49.890;8.222;2023-04-23T13:48:48;23.10;67.50
2995;DHT22;35277;49.890;8.222;2023-04-23T13:51:16;23.10;67.50
2995;DHT22;35277;49.890;8.222;2023-04-23T13:54:01;23.20;67.60
2995;DHT22;35277;49.890;8.222;2023-04-23T13:56:30;23.20;67.70
2995;DHT22;35277;49.890;8.222;2023-04-23T13:58:58;23.20;67.80
2995;DHT22;35277;49.890;8.222;2023-04-23T14:01:45;23.20;67.80
2995;DHT22;35277;49.890;8.222;2023-04-23T14:04:15;23.20;67.90
2995;DHT22;35277;49.890;8.222;2023-04-23T14:06:43;23.20;67.90
2995;DHT22;35277;49.890;8.222;2023-04-23T14:09:11;23.20;67.90
2995;DHT22;35277;49.890;8.222;2023-04-23T14:11:40;23.20;68.00
2995;DHT22;35277;49.890;8.222;2023-04-23T14:14:08;23.20;68.00
2995;DHT22;35277;49.890;8.222;2023-04-23T14:16:35;23.30;68.10
2995;DHT22;35277;49.890;8.222;2023-04-23T14:19:03;23.30;68.10
2995;DHT22;35277;49.890;8.222;2023-04-23T14:21:31;23.30;68.20
2995;DHT22;35277;49.890;8.222;2023-04-23T14:24:00;23.30;68.20
2995;DHT22;35277;49.890;8.222;2023-04-23T14:26:33;23.30;68.20
2995;DHT22;35277;49.890;8.222;2023-04-23T14:29:16;23.20;68.20
2995;DHT22;35277;49.890;8.222;2023-04-23T14:31:44;23.20;68.20
2995;DHT22;35277;49.890;8.222;2023-04-23T14:34:12;23.20;68.20
2995;DHT22;35277;49.890;8.222;2023-04-23T14:36:40;23.20;68.30
2995;DHT22;35277;49.890;8.222;2023-04-23T14:39:07;23.20;68.30
2995;DHT22;35277;49.890;8.222;2023-04-23T14:41:35;23.20;68.30
2995;DHT22;35277;49.890;8.222;2023-04-23T14:44:03;23.20;68.40
2995;DHT22;35277;49.890;8.222;2023-04-23T14:46:32;23.10;68.30
2995;DHT22;35277;49.890;8.222;2023-04-23T14:49:00;23.10;68.30
2995;DHT22;35277;49.890;8.222;2023-04-23T14:51:27;23.10;68.30
2995;DHT22;35277;49.890;8.222;2023-04-23T14:53:55;23.10;68.30
2995;DHT22;35277;49.890;8.222;2023-04-23T14:56:23;23.10;68.40
2995;DHT22;35277;49.890;8.222;2023-04-23T14:58:51;23.10;68.40
2995;DHT22;35277;49.890;8.222;2023-04-23T15:01:19;23.10;68.40
2995;DHT22;35277;49.890;8.222;2023-04-23T15:03:48;23.10;68.50
2995;DHT22;35277;49.890;8.222;2023-04-23T15:06:17;23.10;68.50
2995;DHT22;35277;49.890;8.222;2023-04-23T15:08:44;23.10;68.50
2995;DHT22;35277;49.890;8.222;2023-04-23T15:11:12;23.10;68.60
2995;DHT22;35277;49.890;8.222;2023-04-23T15:13:45;23.10;68.60
2995;DHT22;35277;49.890;8.222;2023-04-23T15:16:24;23.10;68.70
2995;DHT22;35277;49.890;8.222;2023-04-23T15:19:13;23.10;68.70
2995;DHT22;35277;49.890;8.222;2023-04-23T15:21:43;23.00;68.60
2995;DHT22;35277;49.890;8.222;2023-04-23T15:24:10;23.10;68.70
2995;DHT22;35277;49.890;8.222;2023-04-23T15:26:38;23.00;68.60
2995;DHT22;35277;49.890;8.222;2023-04-23T15:29:06;23.00;68.60
2995;DHT22;35277;49.890;8.222;2023-04-23T15:31:35;23.00;68.70
2995;DHT22;35277;49.890;8.222;2023-04-23T15:34:03;23.00;68.70
2995;DHT22;35277;49.890;8.222;2023-04-23T15:36:35;23.00;68.70
2995;DHT22;35277;49.890;8.222;2023-04-23T15:39:04;23.00;68.80
2995;DHT22;35277;49.890;8.222;2023-04-23T15:41:33;23.00;68.80
2995;DHT22;35277;49.890;8.222;2023-04-23T15:44:07;23.00;68.90
2995;DHT22;35277;49.890;8.222;2023-04-23T15:46:36;23.00;68.90
2995;DHT22;35277;49.890;8.222;2023-04-23T15:49:04;23.00;69.00
2995;DHT22;35277;49.890;8.222;2023-04-23T15:51:32;23.00;69.00
2995;DHT22;35277;49.890;8.222;2023-04-23T15:54:01;23.00;69.10
2995;DHT22;35277;49.890;8.222;2023-04-23T15:56:31;23.00;69.10
2995;DHT22;35277;49.890;8.222;2023-04-23T15:58:59;23.00;69.10